sensor_id;sensor_type;location;lat;lon;timestamp;temperature;humidity
18384;DHT22;9318;48.644;9.456;2022-10-31T00:02:07;10.10;99.90
18384;DHT22;9318;48.644;9.456;2022-10-31T00:04:34;10.10;99.90
18384;DHT22;9318;48.644;9.456;2022-10-31T00:07:01;10.10;99.90
18384;DHT22;9318;48.644;9.456;2022-10-31T00:09:28;10.10;99.90
18384;DHT22;9318;48.644;9.456;2022-10-31T00:11:56;10.00;99.90
18384;DHT22;9318;48.644;9.456;2022-10-31T00:14:23;10.10;99.90
18384;DHT22;9318;48.644;9.456;2022-10-31T00:16:50;10.00;99.90
18384;DHT22;9318;48.644;9.456;2022-10-31T00:19:17;10.00;99.90
18384;DHT22;9318;48.644;9.456;2022-10-31T00:21:44;10.00;99.90
18384;DHT22;9318;48.644;9.456;2022-10-31T00:24:11;9.90;99.90
18384;DHT22;9318;48.644;9.456;2022-10-31T00:26:39;9.90;99.90
18384;DHT22;9318;48.644;9.456;2022-10-31T00:29:08;9.90;99.90
18384;DHT22;9318;48.644;9.456;2022-10-31T00:31:35;9.90;99.90
18384;DHT22;9318;48.644;9.456;2022-10-31T00:34:02;9.90;99.90
18384;DHT22;9318;48.644;9.456;2022-10-31T00:36:29;9.80;99.90
18384;DHT22;9318;48.644;9.456;2022-10-31T00:38:58;9.80;99.90
18384;DHT22;9318;48.644;9.456;2022-10-31T00:41:27;9.80;99.90
18384;DHT22;9318;48.644;9.456;2022-10-31T00:43:54;9.80;99.90
18384;DHT22;9318;48.644;9.456;2022-10-31T00:46:23;9.80;99.90
18384;DHT22;9318;48.644;9.456;2022-10-31T00:48:50;9.80;99.90
18384;DHT22;9318;48.644;9.456;2022-10-31T00:51:17;9.70;99.90
18384;DHT22;9318;48.644;9.456;2022-10-31T00:53:45;9.70;99.90
18384;DHT22;9318;48.644;9.456;2022-10-31T00:56:12;9.70;99.90
18384;DHT22;9318;48.644;9.456;2022-10-31T00:58:39;9.70;99.90
18384;DHT22;9318;48.644;9.456;2022-10-31T01:01:06;9.60;99.90
18384;DHT22;9318;48.644;9.456;2022-10-31T01:03:35;9.60;99.90
18384;DHT22;9318;48.644;9.456;2022-10-31T01:06:06;9.60;99.90
18384;DHT22;9318;48.644;9.456;2022-10-31T01:08:34;9.60;99.90
18384;DHT22;9318;48.644;9.456;2022-10-31T01:11:05;9.60;99.90
18384;DHT22;9318;48.644;9.456;2022-10-31T01:13:33;9.50;99.90
18384;DHT22;9318;48.644;9.456;2022-10-31T01:16:01;9.50;99.90
18384;DHT22;9318;48.644;9.456;2022-10-31T01:18:29;9.50;99.90
18384;DHT22;9318;48.644;9.456;2022-10-31T01:21:01;9.40;99.90
18384;DHT22;9318;48.644;9.456;2022-10-31T01:23:28;9.40;99.90
18384;DHT22;9318;48.644;9.456;2022-10-31T01:26:03;9.40;99.90
18384;DHT22;9318;48.644;9.456;2022-10-31T01:28:32;9.40;99.90
18384;DHT22;9318;48.644;9.456;2022-10-31T01:31:03;9.40;99.90
18384;DHT22;9318;48.644;9.456;2022-10-31T01:33:31;9.40;99.90
18384;DHT22;9318;48.644;9.456;2022-10-31T01:36:00;9.40;99.90
18384;DHT22;9318;48.644;9.456;2022-10-31T01:38:27;9.40;99.90
18384;DHT22;9318;48.644;9.456;2022-10-31T01:40:54;9.30;99.90
18384;DHT22;9318;48.644;9.456;2022-10-31T01:43:21;9.30;99.90
18384;DHT22;9318;48.644;9.456;2022-10-31T01:45:52;9.40;99.90
18384;DHT22;9318;48.644;9.456;2022-10-31T01:48:23;9.30;99.90
18384;DHT22;9318;48.644;9.456;2022-10-31T01:50:53;9.30;99.90
18384;DHT22;9318;48.644;9.456;2022-10-31T01:53:23;9.30;99.90
18384;DHT22;9318;48.644;9.456;2022-10-31T01:55:51;9.30;99.90
18384;DHT22;9318;48.644;9.456;2022-10-31T01:58:22;9.30;99.90
18384;DHT22;9318;48.644;9.456;2022-10-31T02:00:53;9.30;99.90
18384;DHT22;9318;48.644;9.456;2022-10-31T02:03:22;9.30;99.90
18384;DHT22;9318;48.644;9.456;2022-10-31T02:05:50;9.30;99.90
18384;DHT22;9318;48.644;9.456;2022-10-31T02:08:25;9.30;99.90
18384;DHT22;9318;48.644;9.456;2022-10-31T02:10:53;9.30;99.90
18384;DHT22;9318;48.644;9.456;2022-10-31T02:13:21;9.30;99.90
18384;DHT22;9318;48.644;9.456;2022-10-31T02:15:51;9.30;99.90
18384;DHT22;9318;48.644;9.456;2022-10-31T02:18:19;9.30;99.90
18384;DHT22;9318;48.644;9.456;2022-10-31T02:20:55;9.30;99.90
18384;DHT22;9318;48.644;9.456;2022-10-31T02:23:54;9.30;99.90
18384;DHT22;9318;48.644;9.456;2022-10-31T02:32:52;9.30;99.90
18384;DHT22;9318;48.644;9.456;2022-10-31T02:35:33;9.30;99.90
18384;DHT22;9318;48.644;9.456;2022-10-31T02:38:08;9.20;99.90
18384;DHT22;9318;48.644;9.456;2022-10-31T02:40:47;9.20;99.90
18384;DHT22;9318;48.644;9.456;2022-10-31T02:43:20;9.20;99.90
18384;DHT22;9318;48.644;9.456;2022-10-31T02:45:51;9.20;99.90
18384;DHT22;9318;48.644;9.456;2022-10-31T02:48:25;9.20;99.90
18384;DHT22;9318;48.644;9.456;2022-10-31T02:50:56;9.20;99.90
18384;DHT22;9318;48.644;9.456;2022-10-31T02:53:24;9.20;99.90
18384;DHT22;9318;48.644;9.456;2022-10-31T02:55:58;9.10;99.90
18384;DHT22;9318;48.644;9.456;2022-10-31T02:58:28;9.10;99.90
18384;DHT22;9318;48.644;9.456;2022-10-31T03:04:02;9.10;99.90
18384;DHT22;9318;48.644;9.456;2022-10-31T03:06:37;9.10;99.90
18384;DHT22;9318;48.644;9.456;2022-10-31T03:09:10;9.10;99.90
18384;DHT22;9318;48.644;9.456;2022-10-31T03:11:42;9.00;99.90
18384;DHT22;9318;48.644;9.456;2022-10-31T03:14:18;9.00;99.90
18384;DHT22;9318;48.644;9.456;2022-10-31T03:16:49;9.00;99.90
18384;DHT22;9318;48.644;9.456;2022-10-31T03:19:21;8.90;99.90
18384;DHT22;9318;48.644;9.456;2022-10-31T03:21:52;8.90;99.90
18384;DHT22;9318;48.644;9.456;2022-10-31T03:24:21;8.90;99.90
18384;DHT22;9318;48.644;9.456;2022-10-31T03:26:52;8.80;99.90
18384;DHT22;9318;48.644;9.456;2022-10-31T03:29:24;8.80;99.90
18384;DHT22;9318;48.644;9.456;2022-10-31T03:31:56;8.80;99.90
18384;DHT22;9318;48.644;9.456;2022-10-31T03:34:27;8.80;99.90
18384;DHT22;9318;48.644;9.456;2022-10-31T03:36:57;8.70;99.90
18384;DHT22;9318;48.644;9.456;2022-10-31T03:39:27;8.70;99.90
18384;DHT22;9318;48.644;9.456;2022-10-31T03:41:57;8.70;99.90
18384;DHT22;9318;48.644;9.456;2022-10-31T03:44:27;8.70;99.90
18384;DHT22;9318;48.644;9.456;2022-10-31T03:46:56;8.70;99.90
18384;DHT22;9318;48.644;9.456;2022-10-31T03:49:25;8.70;99.90
18384;DHT22;9318;48.644;9.456;2022-10-31T03:51:57;8.60;99.90
18384;DHT22;9318;48.644;9.456;2022-10-31T03:54:32;8.60;99.90
18384;DHT22;9318;48.644;9.456;2022-10-31T03:57:06;8.60;99.90
18384;DHT22;9318;48.644;9.456;2022-10-31T03:59:41;8.50;99.90
18384;DHT22;9318;48.644;9.456;2022-10-31T04:02:16;8.50;99.90
18384;DHT22;9318;48.644;9.456;2022-10-31T04:04:46;8.50;99.90
18384;DHT22;9318;48.644;9.456;2022-10-31T04:07:15;8.50;99.90
18384;DHT22;9318;48.644;9.456;2022-10-31T04:09:45;8.50;99.90
18384;DHT22;9318;48.644;9.456;2022-10-31T04:12:15;8.40;99.90
18384;DHT22;9318;48.644;9.456;2022-10-31T04:14:45;8.50;99.90
18384;DHT22;9318;48.644;9.456;2022-10-31T04:17:16;8.50;99.90
18384;DHT22;9318;48.644;9.456;2022-10-31T04:19:46;8.50;99.90
18384;DHT22;9318;48.644;9.456;2022-10-31T04:22:13;8.50;99.90
18384;DHT22;9318;48.644;9.456;2022-10-31T04:24:41;8.50;99.90
18384;DHT22;9318;48.644;9.456;2022-10-31T04:27:08;8.50;99.90
18384;DHT22;9318;48.644;9.456;2022-10-31T04:29:35;8.50;99.90
18384;DHT22;9318;48.644;9.456;2022-10-31T04:32:02;8.50;99.90
18384;DHT22;9318;48.644;9.456;2022-10-31T04:34:29;8.50;99.90
18384;DHT22;9318;48.644;9.456;2022-10-31T04:36:58;8.50;99.90
18384;DHT22;9318;48.644;9.456;2022-10-31T04:39:25;8.50;99.90
18384;DHT22;9318;48.644;9.456;2022-10-31T04:41:52;8.50;99.90
18384;DHT22;9318;48.644;9.456;2022-10-31T04:44:19;8.50;99.90
18384;DHT22;9318;48.644;9.456;2022-10-31T04:46:47;8.50;99.90
18384;DHT22;9318;48.644;9.456;2022-10-31T04:49:14;8.40;99.90
18384;DHT22;9318;48.644;9.456;2022-10-31T04:51:41;8.40;99.90
18384;DHT22;9318;48.644;9.456;2022-10-31T04:54:10;8.40;99.90
18384;DHT22;9318;48.644;9.456;2022-10-31T04:56:37;8.40;99.90
18384;DHT22;9318;48.644;9.456;2022-10-31T04:59:04;8.40;99.90
18384;DHT22;9318;48.644;9.456;2022-10-31T05:01:32;8.40;99.90
18384;DHT22;9318;48.644;9.456;2022-10-31T05:03:58;8.30;99.90
18384;DHT22;9318;48.644;9.456;2022-10-31T05:06:25;8.30;99.90
18384;DHT22;9318;48.644;9.456;2022-10-31T05:08:53;8.30;99.90
18384;DHT22;9318;48.644;9.456;2022-10-31T05:11:21;8.30;99.90
18384;DHT22;9318;48.644;9.456;2022-10-31T05:13:48;8.30;99.90
18384;DHT22;9318;48.644;9.456;2022-10-31T05:16:15;8.30;99.90
18384;DHT22;9318;48.644;9.456;2022-10-31T05:18:41;8.30;99.90
18384;DHT22;9318;48.644;9.456;2022-10-31T05:21:08;8.20;99.90
18384;DHT22;9318;48.644;9.456;2022-10-31T05:23:35;8.20;99.90
18384;DHT22;9318;48.644;9.456;2022-10-31T05:26:02;8.20;99.90
18384;DHT22;9318;48.644;9.456;2022-10-31T05:28:30;8.20;99.90
18384;DHT22;9318;48.644;9.456;2022-10-31T05:30:57;8.20;99.90
18384;DHT22;9318;48.644;9.456;2022-10-31T05:33:24;8.10;99.90
18384;DHT22;9318;48.644;9.456;2022-10-31T05:35:51;8.10;99.90
18384;DHT22;9318;48.644;9.456;2022-10-31T05:38:18;8.00;99.90
18384;DHT22;9318;48.644;9.456;2022-10-31T05:40:45;8.00;99.90
18384;DHT22;9318;48.644;9.456;2022-10-31T05:43:12;8.00;99.90
18384;DHT22;9318;48.644;9.456;2022-10-31T05:45:40;8.10;99.90
18384;DHT22;9318;48.644;9.456;2022-10-31T05:48:08;8.10;99.90
18384;DHT22;9318;48.644;9.456;2022-10-31T05:50:35;8.60;99.90
18384;DHT22;9318;48.644;9.456;2022-10-31T05:53:04;8.00;99.90
18384;DHT22;9318;48.644;9.456;2022-10-31T05:55:31;8.00;99.90
18384;DHT22;9318;48.644;9.456;2022-10-31T05:57:58;8.00;99.90
18384;DHT22;9318;48.644;9.456;2022-10-31T06:00:26;8.00;99.90
18384;DHT22;9318;48.644;9.456;2022-10-31T06:02:59;8.00;99.90
18384;DHT22;9318;48.644;9.456;2022-10-31T06:05:26;7.90;99.90
18384;DHT22;9318;48.644;9.456;2022-10-31T06:07:53;8.00;99.90
18384;DHT22;9318;48.644;9.456;2022-10-31T06:10:21;8.20;99.90
18384;DHT22;9318;48.644;9.456;2022-10-31T06:12:48;8.40;99.90
18384;DHT22;9318;48.644;9.456;2022-10-31T06:15:16;8.60;99.90
18384;DHT22;9318;48.644;9.456;2022-10-31T06:17:43;8.80;99.90
18384;DHT22;9318;48.644;9.456;2022-10-31T06:20:11;9.00;99.90
18384;DHT22;9318;48.644;9.456;2022-10-31T06:22:39;9.10;99.90
18384;DHT22;9318;48.644;9.456;2022-10-31T06:25:06;9.30;99.90
18384;DHT22;9318;48.644;9.456;2022-10-31T06:27:33;9.40;99.90
18384;DHT22;9318;48.644;9.456;2022-10-31T06:30:00;9.60;99.90
18384;DHT22;9318;48.644;9.456;2022-10-31T06:32:27;9.80;99.90
18384;DHT22;9318;48.644;9.456;2022-10-31T06:34:54;10.10;99.90
18384;DHT22;9318;48.644;9.456;2022-10-31T06:37:22;10.30;99.90
18384;DHT22;9318;48.644;9.456;2022-10-31T06:39:49;10.40;99.90
18384;DHT22;9318;48.644;9.456;2022-10-31T06:42:16;10.40;99.90
18384;DHT22;9318;48.644;9.456;2022-10-31T06:44:43;10.40;99.90
18384;DHT22;9318;48.644;9.456;2022-10-31T06:47:10;10.50;99.90
18384;DHT22;9318;48.644;9.456;2022-10-31T06:49:37;10.60;99.90
18384;DHT22;9318;48.644;9.456;2022-10-31T06:52:05;10.40;99.90
18384;DHT22;9318;48.644;9.456;2022-10-31T06:54:33;10.40;99.90
18384;DHT22;9318;48.644;9.456;2022-10-31T06:57:00;10.50;99.90
18384;DHT22;9318;48.644;9.456;2022-10-31T06:59:27;10.60;99.90
18384;DHT22;9318;48.644;9.456;2022-10-31T07:01:54;10.80;99.90
18384;DHT22;9318;48.644;9.456;2022-10-31T07:04:20;10.90;99.90
18384;DHT22;9318;48.644;9.456;2022-10-31T07:06:50;11.00;99.90
18384;DHT22;9318;48.644;9.456;2022-10-31T07:09:17;11.10;99.90
18384;DHT22;9318;48.644;9.456;2022-10-31T07:11:45;11.20;99.90
18384;DHT22;9318;48.644;9.456;2022-10-31T07:14:12;11.30;99.90
18384;DHT22;9318;48.644;9.456;2022-10-31T07:16:39;11.40;99.90
18384;DHT22;9318;48.644;9.456;2022-10-31T07:19:06;11.50;99.90
18384;DHT22;9318;48.644;9.456;2022-10-31T07:21:33;10.50;99.90
18384;DHT22;9318;48.644;9.456;2022-10-31T07:24:00;11.60;99.90
18384;DHT22;9318;48.644;9.456;2022-10-31T07:26:27;11.70;99.90
18384;DHT22;9318;48.644;9.456;2022-10-31T07:28:55;11.70;99.90
18384;DHT22;9318;48.644;9.456;2022-10-31T07:31:22;11.80;99.90
18384;DHT22;9318;48.644;9.456;2022-10-31T07:33:50;11.80;99.90
18384;DHT22;9318;48.644;9.456;2022-10-31T07:36:17;11.80;99.90
18384;DHT22;9318;48.644;9.456;2022-10-31T07:38:44;11.80;99.90
18384;DHT22;9318;48.644;9.456;2022-10-31T07:41:11;11.90;99.90
18384;DHT22;9318;48.644;9.456;2022-10-31T07:43:37;12.00;99.90
18384;DHT22;9318;48.644;9.456;2022-10-31T07:46:06;12.10;99.90
18384;DHT22;9318;48.644;9.456;2022-10-31T07:48:33;12.20;99.90
18384;DHT22;9318;48.644;9.456;2022-10-31T07:50:59;12.30;99.90
18384;DHT22;9318;48.644;9.456;2022-10-31T07:53:26;12.30;99.90
18384;DHT22;9318;48.644;9.456;2022-10-31T07:55:53;12.40;99.90
18384;DHT22;9318;48.644;9.456;2022-10-31T07:58:20;12.50;99.90
18384;DHT22;9318;48.644;9.456;2022-10-31T08:00:47;12.60;99.90
18384;DHT22;9318;48.644;9.456;2022-10-31T08:03:17;12.70;99.90
18384;DHT22;9318;48.644;9.456;2022-10-31T08:05:44;12.80;99.90
18384;DHT22;9318;48.644;9.456;2022-10-31T08:08:13;12.80;99.90
18384;DHT22;9318;48.644;9.456;2022-10-31T08:10:40;12.90;99.90
18384;DHT22;9318;48.644;9.456;2022-10-31T08:13:09;12.90;99.90
18384;DHT22;9318;48.644;9.456;2022-10-31T08:15:37;12.90;99.90
18384;DHT22;9318;48.644;9.456;2022-10-31T08:18:10;13.00;99.90
18384;DHT22;9318;48.644;9.456;2022-10-31T08:20:39;13.10;99.90
18384;DHT22;9318;48.644;9.456;2022-10-31T08:23:06;13.20;99.90
18384;DHT22;9318;48.644;9.456;2022-10-31T08:25:34;13.30;99.90
18384;DHT22;9318;48.644;9.456;2022-10-31T08:28:01;13.30;99.90
18384;DHT22;9318;48.644;9.456;2022-10-31T08:30:31;13.40;99.90
18384;DHT22;9318;48.644;9.456;2022-10-31T08:32:59;13.40;99.90
18384;DHT22;9318;48.644;9.456;2022-10-31T08:35:26;13.50;99.90
18384;DHT22;9318;48.644;9.456;2022-10-31T08:37:55;13.60;99.90
18384;DHT22;9318;48.644;9.456;2022-10-31T08:40:23;13.60;99.90
18384;DHT22;9318;48.644;9.456;2022-10-31T08:42:57;13.70;99.90
18384;DHT22;9318;48.644;9.456;2022-10-31T08:45:25;13.90;99.90
18384;DHT22;9318;48.644;9.456;2022-10-31T08:47:56;13.90;99.90
18384;DHT22;9318;48.644;9.456;2022-10-31T08:50:23;13.90;99.90
18384;DHT22;9318;48.644;9.456;2022-10-31T08:52:50;14.00;99.90
18384;DHT22;9318;48.644;9.456;2022-10-31T08:57:46;14.10;99.90
18384;DHT22;9318;48.644;9.456;2022-10-31T09:00:13;14.20;99.90
18384;DHT22;9318;48.644;9.456;2022-10-31T09:02:40;14.20;99.90
18384;DHT22;9318;48.644;9.456;2022-10-31T09:05:07;14.20;99.90
18384;DHT22;9318;48.644;9.456;2022-10-31T09:07:34;14.20;99.90
18384;DHT22;9318;48.644;9.456;2022-10-31T09:10:02;14.20;99.90
18384;DHT22;9318;48.644;9.456;2022-10-31T09:12:28;14.20;99.90
18384;DHT22;9318;48.644;9.456;2022-10-31T09:14:57;14.30;99.90
18384;DHT22;9318;48.644;9.456;2022-10-31T09:17:26;14.20;99.90
18384;DHT22;9318;48.644;9.456;2022-10-31T09:19:54;14.30;99.90
18384;DHT22;9318;48.644;9.456;2022-10-31T09:22:21;14.40;99.90
18384;DHT22;9318;48.644;9.456;2022-10-31T09:24:48;14.60;99.90
18384;DHT22;9318;48.644;9.456;2022-10-31T09:27:15;14.70;99.90
18384;DHT22;9318;48.644;9.456;2022-10-31T09:29:42;14.70;99.90
18384;DHT22;9318;48.644;9.456;2022-10-31T09:32:10;14.90;99.90
18384;DHT22;9318;48.644;9.456;2022-10-31T09:34:37;15.00;99.90
18384;DHT22;9318;48.644;9.456;2022-10-31T09:37:04;15.20;99.90
18384;DHT22;9318;48.644;9.456;2022-10-31T09:39:31;15.30;99.90
18384;DHT22;9318;48.644;9.456;2022-10-31T09:42:15;15.50;99.90
18384;DHT22;9318;48.644;9.456;2022-10-31T09:44:51;15.60;99.90
18384;DHT22;9318;48.644;9.456;2022-10-31T09:47:37;15.80;99.90
18384;DHT22;9318;48.644;9.456;2022-10-31T09:50:14;15.90;99.90
18384;DHT22;9318;48.644;9.456;2022-10-31T09:52:48;16.00;99.90
18384;DHT22;9318;48.644;9.456;2022-10-31T09:55:22;16.00;99.90
18384;DHT22;9318;48.644;9.456;2022-10-31T09:57:53;16.20;99.90
18384;DHT22;9318;48.644;9.456;2022-10-31T10:00:21;16.30;99.90
18384;DHT22;9318;48.644;9.456;2022-10-31T10:02:55;16.40;99.90
18384;DHT22;9318;48.644;9.456;2022-10-31T10:05:29;16.40;99.90
18384;DHT22;9318;48.644;9.456;2022-10-31T10:08:01;16.30;99.90
18384;DHT22;9318;48.644;9.456;2022-10-31T10:10:45;16.50;99.90
18384;DHT22;9318;48.644;9.456;2022-10-31T10:13:44;16.70;99.90
18384;DHT22;9318;48.644;9.456;2022-10-31T10:16:22;16.90;99.90
18384;DHT22;9318;48.644;9.456;2022-10-31T10:19:02;17.10;99.90
18384;DHT22;9318;48.644;9.456;2022-10-31T10:21:39;17.20;99.90
18384;DHT22;9318;48.644;9.456;2022-10-31T10:24:19;17.40;99.90
18384;DHT22;9318;48.644;9.456;2022-10-31T10:26:53;17.50;99.90
18384;DHT22;9318;48.644;9.456;2022-10-31T10:29:31;17.70;99.90
18384;DHT22;9318;48.644;9.456;2022-10-31T10:32:09;17.90;99.90
18384;DHT22;9318;48.644;9.456;2022-10-31T10:34:43;18.00;99.90
18384;DHT22;9318;48.644;9.456;2022-10-31T10:37:20;18.10;99.90
18384;DHT22;9318;48.644;9.456;2022-10-31T10:39:53;18.30;99.90
18384;DHT22;9318;48.644;9.456;2022-10-31T10:42:23;18.60;99.90
18384;DHT22;9318;48.644;9.456;2022-10-31T10:45:15;18.90;99.90
18384;DHT22;9318;48.644;9.456;2022-10-31T10:48:05;19.30;99.90
18384;DHT22;9318;48.644;9.456;2022-10-31T10:50:39;19.50;99.90
18384;DHT22;9318;48.644;9.456;2022-10-31T10:53:21;19.60;99.90
18384;DHT22;9318;48.644;9.456;2022-10-31T10:56:02;19.60;99.90
18384;DHT22;9318;48.644;9.456;2022-10-31T10:58:32;19.30;99.90
18384;DHT22;9318;48.644;9.456;2022-10-31T11:01:08;19.10;99.90
18384;DHT22;9318;48.644;9.456;2022-10-31T11:03:36;19.00;99.90
18384;DHT22;9318;48.644;9.456;2022-10-31T11:06:15;18.70;99.90
18384;DHT22;9318;48.644;9.456;2022-10-31T11:08:42;18.60;99.90
18384;DHT22;9318;48.644;9.456;2022-10-31T11:11:18;18.50;99.90
18384;DHT22;9318;48.644;9.456;2022-10-31T11:13:56;18.40;99.90
18384;DHT22;9318;48.644;9.456;2022-10-31T11:16:30;18.60;99.90
18384;DHT22;9318;48.644;9.456;2022-10-31T11:19:07;18.80;99.90
18384;DHT22;9318;48.644;9.456;2022-10-31T11:21:36;19.20;99.90
18384;DHT22;9318;48.644;9.456;2022-10-31T11:24:03;19.40;99.90
18384;DHT22;9318;48.644;9.456;2022-10-31T11:26:30;19.60;99.90
18384;DHT22;9318;48.644;9.456;2022-10-31T11:29:01;20.00;99.90
18384;DHT22;9318;48.644;9.456;2022-10-31T11:31:29;20.50;99.90
18384;DHT22;9318;48.644;9.456;2022-10-31T11:33:59;20.90;99.90
18384;DHT22;9318;48.644;9.456;2022-10-31T11:36:29;21.30;99.90
18384;DHT22;9318;48.644;9.456;2022-10-31T11:38:59;21.40;99.90
18384;DHT22;9318;48.644;9.456;2022-10-31T11:41:30;21.40;99.90
18384;DHT22;9318;48.644;9.456;2022-10-31T11:44:00;21.40;99.90
18384;DHT22;9318;48.644;9.456;2022-10-31T11:46:33;21.40;99.90
18384;DHT22;9318;48.644;9.456;2022-10-31T11:49:01;21.50;99.90
18384;DHT22;9318;48.644;9.456;2022-10-31T11:51:33;21.60;99.90
18384;DHT22;9318;48.644;9.456;2022-10-31T11:54:04;21.60;99.90
18384;DHT22;9318;48.644;9.456;2022-10-31T11:56:41;21.70;99.90
18384;DHT22;9318;48.644;9.456;2022-10-31T11:59:18;21.80;99.90
18384;DHT22;9318;48.644;9.456;2022-10-31T12:01:48;22.10;99.90
18384;DHT22;9318;48.644;9.456;2022-10-31T12:04:16;22.30;99.90
18384;DHT22;9318;48.644;9.456;2022-10-31T12:06:44;22.50;99.90
18384;DHT22;9318;48.644;9.456;2022-10-31T12:09:21;22.50;99.90
18384;DHT22;9318;48.644;9.456;2022-10-31T12:12:02;22.30;99.90
18384;DHT22;9318;48.644;9.456;2022-10-31T12:14:37;22.20;99.90
18384;DHT22;9318;48.644;9.456;2022-10-31T12:17:14;22.30;99.90
18384;DHT22;9318;48.644;9.456;2022-10-31T12:19:48;22.20;99.90
18384;DHT22;9318;48.644;9.456;2022-10-31T12:22:22;22.60;99.90
18384;DHT22;9318;48.644;9.456;2022-10-31T12:25:07;23.00;99.90
18384;DHT22;9318;48.644;9.456;2022-10-31T12:30:55;22.70;99.90
18384;DHT22;9318;48.644;9.456;2022-10-31T12:33:37;22.40;99.90
18384;DHT22;9318;48.644;9.456;2022-10-31T12:36:21;22.10;99.90
18384;DHT22;9318;48.644;9.456;2022-10-31T12:41:52;21.40;99.90
18384;DHT22;9318;48.644;9.456;2022-10-31T12:44:48;21.00;99.90
18384;DHT22;9318;48.644;9.456;2022-10-31T12:47:36;20.60;99.90
18384;DHT22;9318;48.644;9.456;2022-10-31T12:50:16;20.20;99.90
18384;DHT22;9318;48.644;9.456;2022-10-31T12:52:56;19.90;99.90
18384;DHT22;9318;48.644;9.456;2022-10-31T12:55:41;19.50;99.90
18384;DHT22;9318;48.644;9.456;2022-10-31T12:58:19;19.30;99.90
18384;DHT22;9318;48.644;9.456;2022-10-31T13:00:56;19.10;99.90
18384;DHT22;9318;48.644;9.456;2022-10-31T13:03:28;18.90;99.90
18384;DHT22;9318;48.644;9.456;2022-10-31T13:06:03;18.80;99.90
18384;DHT22;9318;48.644;9.456;2022-10-31T13:08:35;18.60;99.90
18384;DHT22;9318;48.644;9.456;2022-10-31T13:11:09;18.60;99.90
18384;DHT22;9318;48.644;9.456;2022-10-31T13:13:42;18.50;99.90
18384;DHT22;9318;48.644;9.456;2022-10-31T13:16:14;18.40;99.90
18384;DHT22;9318;48.644;9.456;2022-10-31T13:18:45;18.30;99.90
18384;DHT22;9318;48.644;9.456;2022-10-31T13:21:18;18.20;99.90
18384;DHT22;9318;48.644;9.456;2022-10-31T13:23:49;18.20;99.90
18384;DHT22;9318;48.644;9.456;2022-10-31T13:26:24;18.20;99.90
18384;DHT22;9318;48.644;9.456;2022-10-31T13:29:02;18.10;99.90
18384;DHT22;9318;48.644;9.456;2022-10-31T13:31:30;18.10;99.90
18384;DHT22;9318;48.644;9.456;2022-10-31T13:33:59;18.10;99.90
18384;DHT22;9318;48.644;9.456;2022-10-31T13:36:33;18.10;99.90
18384;DHT22;9318;48.644;9.456;2022-10-31T13:39:12;18.20;99.90
18384;DHT22;9318;48.644;9.456;2022-10-31T13:41:46;18.10;99.90
18384;DHT22;9318;48.644;9.456;2022-10-31T13:44:20;18.20;99.90
18384;DHT22;9318;48.644;9.456;2022-10-31T13:46:50;18.30;99.90
18384;DHT22;9318;48.644;9.456;2022-10-31T13:49:25;18.30;99.90
18384;DHT22;9318;48.644;9.456;2022-10-31T13:51:52;18.50;99.90
18384;DHT22;9318;48.644;9.456;2022-10-31T13:54:21;18.60;99.90
18384;DHT22;9318;48.644;9.456;2022-10-31T13:56:49;18.70;99.90
18384;DHT22;9318;48.644;9.456;2022-10-31T13:59:21;18.80;99.90
18384;DHT22;9318;48.644;9.456;2022-10-31T14:01:51;19.00;99.90
18384;DHT22;9318;48.644;9.456;2022-10-31T14:04:21;19.10;99.90
18384;DHT22;9318;48.644;9.456;2022-10-31T14:06:55;19.20;99.90
18384;DHT22;9318;48.644;9.456;2022-10-31T14:09:29;19.30;99.90
18384;DHT22;9318;48.644;9.456;2022-10-31T14:11:59;19.20;99.90
18384;DHT22;9318;48.644;9.456;2022-10-31T14:14:32;19.10;99.90
18384;DHT22;9318;48.644;9.456;2022-10-31T14:17:00;19.00;99.90
18384;DHT22;9318;48.644;9.456;2022-10-31T14:19:28;18.90;99.90
18384;DHT22;9318;48.644;9.456;2022-10-31T14:21:55;18.90;99.90
18384;DHT22;9318;48.644;9.456;2022-10-31T14:24:33;18.80;99.90
18384;DHT22;9318;48.644;9.456;2022-10-31T14:27:02;18.80;99.90
18384;DHT22;9318;48.644;9.456;2022-10-31T14:29:32;18.80;99.90
18384;DHT22;9318;48.644;9.456;2022-10-31T14:32:06;18.80;99.90
18384;DHT22;9318;48.644;9.456;2022-10-31T14:34:40;18.80;99.90
18384;DHT22;9318;48.644;9.456;2022-10-31T14:37:40;18.80;99.90
18384;DHT22;9318;48.644;9.456;2022-10-31T14:40:24;18.70;99.90
18384;DHT22;9318;48.644;9.456;2022-10-31T14:43:12;18.60;99.90
18384;DHT22;9318;48.644;9.456;2022-10-31T14:45:49;18.40;99.90
18384;DHT22;9318;48.644;9.456;2022-10-31T14:48:41;18.30;99.90
18384;DHT22;9318;48.644;9.456;2022-10-31T14:51:13;18.10;99.90
18384;DHT22;9318;48.644;9.456;2022-10-31T14:53:46;17.90;99.90
18384;DHT22;9318;48.644;9.456;2022-10-31T14:56:19;17.80;99.90
18384;DHT22;9318;48.644;9.456;2022-10-31T14:58:47;17.60;99.90
18384;DHT22;9318;48.644;9.456;2022-10-31T15:01:23;17.50;99.90
18384;DHT22;9318;48.644;9.456;2022-10-31T15:03:52;17.40;99.90
18384;DHT22;9318;48.644;9.456;2022-10-31T15:06:21;17.30;99.90
18384;DHT22;9318;48.644;9.456;2022-10-31T15:08:50;17.20;99.90
18384;DHT22;9318;48.644;9.456;2022-10-31T15:11:19;17.10;99.90
18384;DHT22;9318;48.644;9.456;2022-10-31T15:13:48;17.10;99.90
18384;DHT22;9318;48.644;9.456;2022-10-31T15:16:18;17.00;99.90
18384;DHT22;9318;48.644;9.456;2022-10-31T15:18:53;16.90;99.90
18384;DHT22;9318;48.644;9.456;2022-10-31T15:21:23;16.80;99.90
18384;DHT22;9318;48.644;9.456;2022-10-31T15:23:53;16.70;99.90
18384;DHT22;9318;48.644;9.456;2022-10-31T15:26:22;16.70;99.90
18384;DHT22;9318;48.644;9.456;2022-10-31T15:28:59;16.60;99.90
18384;DHT22;9318;48.644;9.456;2022-10-31T15:31:28;16.50;99.90
18384;DHT22;9318;48.644;9.456;2022-10-31T15:34:00;16.50;99.90
18384;DHT22;9318;48.644;9.456;2022-10-31T15:36:29;16.40;99.90
18384;DHT22;9318;48.644;9.456;2022-10-31T15:38:56;16.30;99.90
18384;DHT22;9318;48.644;9.456;2022-10-31T15:41:28;16.30;99.90
18384;DHT22;9318;48.644;9.456;2022-10-31T15:44:00;16.10;99.90
18384;DHT22;9318;48.644;9.456;2022-10-31T15:46:28;16.10;99.90
18384;DHT22;9318;48.644;9.456;2022-10-31T15:48:57;16.00;99.90
18384;DHT22;9318;48.644;9.456;2022-10-31T15:51:32;16.00;99.90
18384;DHT22;9318;48.644;9.456;2022-10-31T15:54:00;15.90;99.90
18384;DHT22;9318;48.644;9.456;2022-10-31T15:56:28;15.80;99.90
18384;DHT22;9318;48.644;9.456;2022-10-31T15:58:58;15.80;99.90
18384;DHT22;9318;48.644;9.456;2022-10-31T16:01:28;15.70;99.90
18384;DHT22;9318;48.644;9.456;2022-10-31T16:04:03;15.60;99.90
18384;DHT22;9318;48.644;9.456;2022-10-31T16:06:32;15.50;99.90
18384;DHT22;9318;48.644;9.456;2022-10-31T16:08:59;15.50;99.90
18384;DHT22;9318;48.644;9.456;2022-10-31T16:11:32;15.40;99.90
18384;DHT22;9318;48.644;9.456;2022-10-31T16:14:03;15.40;99.90
18384;DHT22;9318;48.644;9.456;2022-10-31T16:16:31;15.30;99.90
18384;DHT22;9318;48.644;9.456;2022-10-31T16:19:01;15.20;99.90
18384;DHT22;9318;48.644;9.456;2022-10-31T16:21:31;15.20;99.90
18384;DHT22;9318;48.644;9.456;2022-10-31T16:24:01;15.20;99.90
18384;DHT22;9318;48.644;9.456;2022-10-31T16:26:29;15.10;99.90
18384;DHT22;9318;48.644;9.456;2022-10-31T16:28:58;15.10;99.90
18384;DHT22;9318;48.644;9.456;2022-10-31T16:31:29;15.10;99.90
18384;DHT22;9318;48.644;9.456;2022-10-31T16:34:09;15.00;99.90